createdAt,value
2019-03-04T00:01:21.640Z,5.50
2019-03-04T00:03:52.520Z,5.50
2019-03-04T00:06:23.396Z,5.50
2019-03-04T00:08:54.216Z,5.40
2019-03-04T00:11:25.365Z,5.50
2019-03-04T00:13:56.181Z,5.40
2019-03-04T00:16:27.012Z,5.40
2019-03-04T00:18:57.880Z,5.40
2019-03-04T00:21:28.732Z,5.40
2019-03-04T00:23:59.545Z,5.40
2019-03-04T00:26:30.637Z,5.40
2019-03-04T00:29:01.821Z,5.40
2019-03-04T00:31:33.152Z,5.40
2019-03-04T00:34:04.426Z,5.40
2019-03-04T00:36:35.652Z,5.50
2019-03-04T00:39:10.953Z,5.40
2019-03-04T00:41:42.121Z,5.40
2019-03-04T00:44:13.282Z,5.40
2019-03-04T00:46:44.425Z,5.40
2019-03-04T00:49:15.536Z,5.30
2019-03-04T00:51:46.864Z,5.30
2019-03-04T00:54:17.692Z,5.30
2019-03-04T00:56:48.560Z,5.30
2019-03-04T00:59:19.396Z,5.30
2019-03-04T01:01:50.344Z,5.30
2019-03-04T01:04:21.396Z,5.40
2019-03-04T01:06:52.736Z,5.40
2019-03-04T01:09:23.555Z,5.40
2019-03-04T01:11:54.409Z,5.40
2019-03-04T01:14:25.240Z,5.40
2019-03-04T01:16:56.089Z,5.40
2019-03-04T01:19:26.916Z,5.40
2019-03-04T01:21:57.769Z,5.40
2019-03-04T01:24:29.119Z,5.40
2019-03-04T01:27:00.307Z,5.40
2019-03-04T01:29:31.402Z,5.40
2019-03-04T01:32:02.556Z,5.40
2019-03-04T01:34:33.384Z,5.40
2019-03-04T01:37:04.325Z,5.40
2019-03-04T01:39:35.228Z,5.40
2019-03-04T01:42:06.093Z,5.40
2019-03-04T01:44:36.919Z,5.40
2019-03-04T01:47:07.786Z,5.40
2019-03-04T01:49:38.714Z,5.40
2019-03-04T01:52:09.533Z,5.40
2019-03-04T01:54:40.348Z,5.40
2019-03-04T01:57:11.547Z,5.40
2019-03-04T01:59:42.733Z,5.40
2019-03-04T02:02:13.680Z,5.40
2019-03-04T02:04:44.812Z,5.40
2019-03-04T02:07:17.154Z,5.40
2019-03-04T02:09:48.325Z,5.40
2019-03-04T02:12:19.446Z,5.40
2019-03-04T02:14:50.318Z,5.40
2019-03-04T02:17:21.208Z,5.40
2019-03-04T02:19:52.093Z,5.40
2019-03-04T02:22:22.923Z,5.40
2019-03-04T02:24:53.782Z,5.40
2019-03-04T02:27:24.970Z,5.30
2019-03-04T02:29:55.832Z,5.30
2019-03-04T02:32:26.694Z,5.30
2019-03-04T02:34:57.532Z,5.30
2019-03-04T02:37:28.360Z,5.30
2019-03-04T02:39:59.193Z,5.30
2019-03-04T02:42:30.067Z,5.30
2019-03-04T02:45:00.913Z,5.30
2019-03-04T02:47:33.325Z,5.30
2019-03-04T02:50:04.244Z,5.30
2019-03-04T02:52:35.126Z,5.30
2019-03-04T02:55:06.770Z,5.30
2019-03-04T02:57:37.637Z,5.30
2019-03-04T03:00:09.694Z,5.30
2019-03-04T03:02:40.849Z,5.20
2019-03-04T03:05:12.033Z,5.20
2019-03-04T03:07:43.258Z,5.10
2019-03-04T03:10:14.690Z,5.10
2019-03-04T03:12:46.002Z,5.10
2019-03-04T03:15:18.519Z,5.10
2019-03-04T03:17:49.849Z,5.10
2019-03-04T03:20:21.134Z,5.10
2019-03-04T03:22:52.342Z,5.10
2019-03-04T03:25:23.438Z,5.00
2019-03-04T03:27:54.710Z,5.00
2019-03-04T03:30:25.878Z,5.00
2019-03-04T03:32:57.209Z,5.00
2019-03-04T03:35:28.389Z,5.00
2019-03-04T03:37:59.631Z,5.00
2019-03-04T03:40:30.901Z,5.00
2019-03-04T03:43:01.827Z,5.00
2019-03-04T03:45:32.647Z,5.00
2019-03-04T03:48:03.439Z,5.00
2019-03-04T03:50:34.779Z,5.00
2019-03-04T03:53:05.918Z,5.00
2019-03-04T03:55:37.151Z,5.00
2019-03-04T03:58:08.451Z,5.00
2019-03-04T04:00:39.603Z,5.00
2019-03-04T04:03:10.946Z,5.00
2019-03-04T04:05:42.129Z,5.00
2019-03-04T04:08:13.448Z,5.00
2019-03-04T04:10:44.649Z,5.00
2019-03-04T04:13:15.855Z,5.00
2019-03-04T04:15:47.190Z,5.00
2019-03-04T04:18:18.088Z,5.00
2019-03-04T04:20:49.476Z,5.00
2019-03-04T04:23:20.307Z,5.10
2019-03-04T04:25:51.115Z,5.10
2019-03-04T04:28:21.937Z,5.10
2019-03-04T04:30:52.755Z,5.10
2019-03-04T04:33:23.609Z,5.10
2019-03-04T04:35:54.803Z,5.20
2019-03-04T04:38:26.001Z,5.20
2019-03-04T04:40:57.076Z,5.20
2019-03-04T04:43:29.274Z,5.20
2019-03-04T04:46:00.617Z,5.20
2019-03-04T04:48:31.915Z,5.20
2019-03-04T04:51:03.196Z,5.20
2019-03-04T04:53:34.466Z,5.20
2019-03-04T04:56:06.013Z,5.20
2019-03-04T04:58:37.213Z,5.20
2019-03-04T05:01:08.029Z,5.20
2019-03-04T05:03:38.869Z,5.20
2019-03-04T05:06:09.977Z,5.20
2019-03-04T05:08:41.123Z,5.20
2019-03-04T05:11:12.545Z,5.20
2019-03-04T05:13:43.521Z,5.30
2019-03-04T05:16:14.802Z,5.30
2019-03-04T05:18:46.837Z,5.30
2019-03-04T05:21:18.074Z,5.30
2019-03-04T05:23:49.425Z,5.30
2019-03-04T05:26:21.800Z,5.30
2019-03-04T05:28:52.952Z,5.40
2019-03-04T05:31:23.986Z,5.40
2019-03-04T05:33:55.587Z,5.30
2019-03-04T05:36:27.859Z,5.30
2019-03-04T05:38:59.058Z,5.30
2019-03-04T05:41:30.409Z,5.30
2019-03-04T05:44:01.750Z,5.30
2019-03-04T05:46:32.897Z,5.30
2019-03-04T05:49:04.110Z,5.30
2019-03-04T05:51:35.365Z,5.30
2019-03-04T05:54:06.686Z,5.40
2019-03-04T05:56:37.689Z,5.40
2019-03-04T05:59:08.880Z,5.40
2019-03-04T06:01:42.239Z,5.40
2019-03-04T06:04:13.933Z,5.40
2019-03-04T06:07:02.133Z,5.40
2019-03-04T06:09:33.364Z,5.50
2019-03-04T06:12:04.614Z,5.40
2019-03-04T06:14:35.837Z,5.40
2019-03-04T06:17:07.153Z,5.40
2019-03-04T06:19:38.275Z,5.50
2019-03-04T06:22:09.471Z,5.60
2019-03-04T06:24:40.287Z,5.60
2019-03-04T06:27:11.137Z,5.70
2019-03-04T06:29:42.327Z,5.70
2019-03-04T06:32:13.529Z,5.70
2019-03-04T06:34:44.649Z,5.70
2019-03-04T06:37:15.803Z,5.70
2019-03-04T06:39:47.016Z,5.70
2019-03-04T06:42:18.244Z,5.70
2019-03-04T06:44:49.465Z,5.70
2019-03-04T06:47:20.649Z,5.60
2019-03-04T06:49:52.012Z,5.60
2019-03-04T06:52:23.296Z,5.60
2019-03-04T06:55:18.719Z,5.60
2019-03-04T06:57:51.623Z,5.70
2019-03-04T07:00:44.646Z,5.70
2019-03-04T07:03:44.757Z,5.70
2019-03-04T07:06:16.193Z,5.80
2019-03-04T07:09:13.556Z,5.80
2019-03-04T07:11:48.355Z,5.80
2019-03-04T07:14:19.504Z,5.80
2019-03-04T07:16:51.733Z,5.90
2019-03-04T07:19:26.859Z,5.90
2019-03-04T07:21:58.092Z,5.90
2019-03-04T07:24:29.257Z,5.90
2019-03-04T07:27:00.386Z,5.90
2019-03-04T07:29:31.540Z,5.90
2019-03-04T07:32:02.727Z,5.90
2019-03-04T07:34:34.170Z,5.90
2019-03-04T07:37:05.469Z,6.00
2019-03-04T07:39:36.614Z,6.10
2019-03-04T07:42:07.794Z,6.10
2019-03-04T07:44:39.092Z,6.10
2019-03-04T07:47:10.450Z,6.10
2019-03-04T07:49:41.847Z,6.20
2019-03-04T07:52:12.940Z,6.20
2019-03-04T07:54:44.076Z,6.20
2019-03-04T07:57:15.310Z,6.30
2019-03-04T07:59:46.469Z,6.40
2019-03-04T08:02:17.618Z,6.50
2019-03-04T08:04:48.756Z,6.50
2019-03-04T08:07:51.433Z,6.60
2019-03-04T08:10:53.322Z,6.60
2019-03-04T08:13:38.167Z,6.50
2019-03-04T08:16:10.972Z,6.60
2019-03-04T08:18:42.220Z,6.50
2019-03-04T08:21:13.404Z,6.50
2019-03-04T08:23:44.556Z,6.50
2019-03-04T08:26:15.978Z,6.50
2019-03-04T08:28:46.946Z,6.50
2019-03-04T08:31:18.282Z,6.60
2019-03-04T08:33:49.659Z,6.60
2019-03-04T08:36:20.487Z,6.80
2019-03-04T08:38:51.681Z,6.80
2019-03-04T08:41:22.814Z,6.90
2019-03-04T08:43:54.078Z,6.90
2019-03-04T08:46:25.210Z,7.00
2019-03-04T08:48:56.380Z,7.10
2019-03-04T08:51:27.759Z,7.10
2019-03-04T08:53:58.934Z,7.10
2019-03-04T08:56:30.105Z,7.00
2019-03-04T08:59:01.265Z,7.00
2019-03-04T09:01:32.489Z,6.90
2019-03-04T09:04:03.692Z,6.90
2019-03-04T09:06:34.920Z,6.80
2019-03-04T09:09:08.782Z,6.80
2019-03-04T09:11:39.677Z,6.80
2019-03-04T09:14:10.625Z,6.80
2019-03-04T09:16:41.506Z,6.80
2019-03-04T09:19:13.351Z,6.80
2019-03-04T09:21:46.953Z,6.80
2019-03-04T09:24:19.258Z,6.80
2019-03-04T09:26:50.185Z,6.70
2019-03-04T09:29:21.017Z,6.80
2019-03-04T09:31:52.181Z,6.90
2019-03-04T09:34:23.388Z,7.00
2019-03-04T09:36:54.622Z,7.20
2019-03-04T09:39:26.128Z,7.30
2019-03-04T09:42:04.277Z,7.40
2019-03-04T09:44:35.485Z,7.40
2019-03-04T09:47:07.553Z,7.50
2019-03-04T09:49:38.432Z,7.50
2019-03-04T09:52:09.431Z,7.50
2019-03-04T09:54:40.770Z,7.50
2019-03-04T09:57:11.909Z,7.50
2019-03-04T09:59:43.075Z,7.40
2019-03-04T10:02:21.673Z,7.30
2019-03-04T10:05:51.292Z,7.20
2019-03-04T10:08:36.607Z,7.20
2019-03-04T10:11:50.228Z,7.20
2019-03-04T10:15:10.934Z,7.20
2019-03-04T10:18:26.685Z,7.20
2019-03-04T10:21:17.223Z,7.30
2019-03-04T10:24:29.124Z,7.50
2019-03-04T10:27:24.982Z,7.60
2019-03-04T10:30:27.347Z,7.70
2019-03-04T10:33:33.388Z,7.70
2019-03-04T10:37:03.237Z,7.90
2019-03-04T10:40:25.033Z,8.10
2019-03-04T10:43:33.197Z,8.30
2019-03-04T10:46:44.238Z,8.40
2019-03-04T10:49:15.484Z,8.40
2019-03-04T10:51:46.619Z,8.40
2019-03-04T10:54:17.797Z,8.30
2019-03-04T10:56:49.062Z,8.30
2019-03-04T10:59:20.275Z,8.50
2019-03-04T11:01:52.001Z,8.60
2019-03-04T11:04:36.673Z,8.60
2019-03-04T11:07:07.505Z,8.60
2019-03-04T11:09:38.571Z,8.70
2019-03-04T11:12:09.467Z,8.50
2019-03-04T11:14:40.655Z,8.30
2019-03-04T11:17:11.741Z,8.30
2019-03-04T11:19:42.951Z,8.20
2019-03-04T11:22:14.224Z,8.40
2019-03-04T11:24:46.470Z,8.40
2019-03-04T11:27:17.917Z,8.60
2019-03-04T11:29:48.746Z,8.70
2019-03-04T11:32:19.556Z,8.90
2019-03-04T11:34:50.412Z,8.90
2019-03-04T11:37:21.273Z,8.90
2019-03-04T11:40:11.896Z,8.90
2019-03-04T11:42:42.704Z,8.70
2019-03-04T11:45:16.049Z,8.60
2019-03-04T11:47:47.292Z,8.60
2019-03-04T11:50:18.702Z,8.50
2019-03-04T11:52:49.945Z,8.50
2019-03-04T11:55:21.744Z,8.30
2019-03-04T11:57:52.896Z,8.20
2019-03-04T12:00:35.366Z,8.10
2019-03-04T12:03:06.905Z,8.10
2019-03-04T12:05:38.237Z,8.00
2019-03-04T12:08:09.060Z,8.00
2019-03-04T12:10:40.197Z,8.00
2019-03-04T12:13:11.129Z,8.10
2019-03-04T12:15:42.147Z,8.20
2019-03-04T12:18:12.949Z,8.30
2019-03-04T12:20:44.904Z,8.50
2019-03-04T12:23:16.517Z,8.40
2019-03-04T12:25:47.745Z,8.50
2019-03-04T12:28:19.906Z,8.50
2019-03-04T12:30:50.912Z,8.50
2019-03-04T12:33:21.737Z,8.40
2019-03-04T12:35:52.597Z,8.40
2019-03-04T12:38:23.402Z,8.40
2019-03-04T12:40:54.280Z,8.30
2019-03-04T12:43:25.425Z,8.20
2019-03-04T12:45:56.589Z,8.10
2019-03-04T12:48:27.635Z,8.00
2019-03-04T12:50:59.037Z,8.00
2019-03-04T12:53:37.038Z,7.90
2019-03-04T12:56:05.167Z,7.80
2019-03-04T12:58:36.005Z,7.80
2019-03-04T13:01:07.032Z,7.80
2019-03-04T13:03:38.186Z,7.80
2019-03-04T13:06:09.336Z,7.90
2019-03-04T13:08:40.159Z,7.90
2019-03-04T13:11:10.991Z,8.00
2019-03-04T13:13:41.800Z,7.90
2019-03-04T13:16:12.681Z,7.90
2019-03-04T13:18:45.252Z,7.90
2019-03-04T13:21:17.231Z,7.80
2019-03-04T13:23:48.347Z,7.60
2019-03-04T13:26:19.208Z,7.60
2019-03-04T13:28:50.033Z,7.60
2019-03-04T13:31:20.864Z,7.60
2019-03-04T13:33:51.681Z,7.50
2019-03-04T13:36:22.762Z,7.50
2019-03-04T13:38:53.552Z,7.60
2019-03-04T13:41:24.800Z,7.60
2019-03-04T13:43:55.611Z,7.50
2019-03-04T13:46:26.436Z,7.50
2019-03-04T13:48:57.548Z,7.50
2019-03-04T13:51:28.404Z,7.50
2019-03-04T13:53:59.256Z,7.40
2019-03-04T13:56:30.386Z,7.30
2019-03-04T13:59:01.569Z,7.30
2019-03-04T14:01:32.764Z,7.30
2019-03-04T14:04:03.914Z,7.20
2019-03-04T14:06:34.864Z,7.30
2019-03-04T14:09:07.380Z,7.20
2019-03-04T14:11:38.898Z,7.10
2019-03-04T14:14:09.713Z,7.00
2019-03-04T14:16:40.552Z,7.00
2019-03-04T14:19:11.365Z,7.00
2019-03-04T14:21:42.169Z,7.00
2019-03-04T14:24:13.074Z,7.00
2019-03-04T14:26:44.454Z,6.90
2019-03-04T14:29:15.613Z,6.80
2019-03-04T14:31:46.540Z,6.80
2019-03-04T14:34:17.359Z,6.80
2019-03-04T14:36:48.176Z,6.80
2019-03-04T14:39:19.133Z,6.80
2019-03-04T14:41:50.075Z,6.80
2019-03-04T14:44:21.329Z,6.80
2019-03-04T14:46:52.184Z,6.80
2019-03-04T14:49:22.988Z,6.70
2019-03-04T14:51:53.849Z,6.70
2019-03-04T14:54:24.652Z,6.70
2019-03-04T14:56:55.713Z,6.70
2019-03-04T14:59:26.505Z,6.70
2019-03-04T15:01:57.337Z,6.80
2019-03-04T15:04:28.157Z,6.70
2019-03-04T15:06:58.994Z,6.70
2019-03-04T15:09:29.841Z,6.70
2019-03-04T15:12:00.680Z,6.70
2019-03-04T15:14:33.814Z,6.70
2019-03-04T15:17:04.632Z,6.70
2019-03-04T15:19:35.432Z,6.70
2019-03-04T15:22:06.471Z,6.60
2019-03-04T15:24:37.292Z,6.60
2019-03-04T15:27:08.109Z,6.70
2019-03-04T15:29:38.953Z,6.70
2019-03-04T15:32:09.797Z,6.60
2019-03-04T15:34:40.721Z,6.50
2019-03-04T15:37:12.264Z,6.60
2019-03-04T15:39:43.436Z,6.50
2019-03-04T15:42:14.625Z,6.60
2019-03-04T15:44:45.445Z,6.60
2019-03-04T15:47:16.284Z,6.60
2019-03-04T15:49:47.100Z,6.60
2019-03-04T15:52:18.076Z,6.50
2019-03-04T15:54:48.895Z,6.50
2019-03-04T15:57:19.849Z,6.50
2019-03-04T15:59:50.676Z,6.50
2019-03-04T16:02:21.795Z,6.60
2019-03-04T16:04:52.605Z,6.60
2019-03-04T16:07:23.533Z,6.60
2019-03-04T16:09:54.338Z,6.60
2019-03-04T16:12:25.401Z,6.60
2019-03-04T16:14:56.640Z,6.50
2019-03-04T16:17:27.488Z,6.50
2019-03-04T16:19:58.306Z,6.50
2019-03-04T16:22:29.104Z,6.40
2019-03-04T16:25:00.328Z,6.40
2019-03-04T16:27:31.559Z,6.40
2019-03-04T16:30:02.377Z,6.40
2019-03-04T16:32:33.301Z,6.50
2019-03-04T16:35:04.299Z,6.50
2019-03-04T16:37:35.144Z,6.50
2019-03-04T16:40:07.169Z,6.60
2019-03-04T16:42:38.224Z,6.60
2019-03-04T16:45:09.347Z,6.70
2019-03-04T16:47:40.181Z,6.60
2019-03-04T16:50:12.789Z,6.60
2019-03-04T16:52:44.112Z,6.70
2019-03-04T16:55:15.968Z,6.70
2019-03-04T16:57:46.957Z,6.60
2019-03-04T17:00:19.049Z,6.60
2019-03-04T17:02:50.277Z,6.70
2019-03-04T17:05:21.448Z,6.60
2019-03-04T17:07:52.325Z,6.60
2019-03-04T17:10:23.233Z,6.60
2019-03-04T17:12:54.916Z,6.50
2019-03-04T17:15:25.980Z,6.50
2019-03-04T17:17:56.810Z,6.50
2019-03-04T17:20:27.672Z,6.50
2019-03-04T17:22:58.656Z,6.50
2019-03-04T17:25:29.516Z,6.50
2019-03-04T17:28:00.472Z,6.50
2019-03-04T17:30:31.448Z,6.50
2019-03-04T17:33:02.383Z,6.40
2019-03-04T17:35:33.402Z,6.50
2019-03-04T17:38:04.369Z,6.50
2019-03-04T17:40:35.255Z,6.50
2019-03-04T17:43:06.120Z,6.50
2019-03-04T17:45:37.164Z,6.60
2019-03-04T17:48:08.196Z,6.60
2019-03-04T17:50:39.292Z,6.60
2019-03-04T17:53:10.260Z,6.60
2019-03-04T17:55:41.092Z,6.60
2019-03-04T17:58:12.109Z,6.60
2019-03-04T18:00:45.937Z,6.60
2019-03-04T18:03:16.829Z,6.60
2019-03-04T18:05:47.789Z,6.60
2019-03-04T18:08:18.841Z,6.70
2019-03-04T18:10:49.703Z,6.60
2019-03-04T18:13:20.669Z,6.60
2019-03-04T18:15:51.870Z,6.60
2019-03-04T18:18:22.717Z,6.60
2019-03-04T18:20:53.555Z,6.60
2019-03-04T18:23:24.392Z,6.60
2019-03-04T18:26:02.717Z,6.60
2019-03-04T18:29:00.969Z,6.70
2019-03-04T18:31:46.562Z,6.70
2019-03-04T18:34:56.654Z,6.70
2019-03-04T18:38:07.128Z,6.70
2019-03-04T18:41:20.850Z,6.70
2019-03-04T18:44:45.488Z,6.70
2019-03-04T18:48:03.194Z,6.70
2019-03-04T18:50:34.135Z,6.80
2019-03-04T18:53:05.089Z,6.80
2019-03-04T18:55:37.514Z,6.80
2019-03-04T18:58:08.629Z,6.80
2019-03-04T19:00:39.467Z,6.80
2019-03-04T19:03:11.373Z,6.90
2019-03-04T19:05:42.205Z,6.90
2019-03-04T19:08:14.108Z,6.90
2019-03-04T19:10:45.026Z,7.00
2019-03-04T19:13:15.867Z,7.00
2019-03-04T19:15:46.924Z,7.00
2019-03-04T19:18:17.760Z,7.10
2019-03-04T19:20:48.716Z,7.10
2019-03-04T19:23:19.701Z,7.10
2019-03-04T19:25:50.505Z,7.10
2019-03-04T19:28:21.417Z,7.20
2019-03-04T19:30:52.448Z,7.20
2019-03-04T19:33:23.461Z,7.20
2019-03-04T19:35:54.388Z,7.30
2019-03-04T19:38:25.407Z,7.30
2019-03-04T19:40:56.285Z,7.30
2019-03-04T19:43:32.820Z,7.40
2019-03-04T19:45:59.670Z,7.40
2019-03-04T19:48:30.573Z,7.40
2019-03-04T19:51:01.636Z,7.50
2019-03-04T19:53:32.642Z,7.50
2019-03-04T19:56:03.693Z,7.60
2019-03-04T19:58:34.736Z,7.70
2019-03-04T20:01:06.185Z,7.70
2019-03-04T20:03:37.128Z,7.80
2019-03-04T20:06:08.169Z,7.80
2019-03-04T20:08:40.045Z,7.80
2019-03-04T20:11:11.897Z,7.80
2019-03-04T20:13:43.837Z,7.80
2019-03-04T20:16:14.772Z,7.80
2019-03-04T20:18:45.878Z,7.80
2019-03-04T20:21:16.824Z,7.80
2019-03-04T20:23:47.659Z,7.80
2019-03-04T20:26:18.490Z,7.80
2019-03-04T20:28:49.336Z,7.80
2019-03-04T20:31:20.188Z,7.80
2019-03-04T20:33:51.065Z,7.80
2019-03-04T20:36:21.945Z,7.80
2019-03-04T20:38:52.955Z,7.80
2019-03-04T20:41:24.016Z,7.80
2019-03-04T20:43:55.973Z,7.80
2019-03-04T20:46:26.977Z,7.80
2019-03-04T20:48:57.864Z,7.80
2019-03-04T20:51:28.732Z,7.80
2019-03-04T20:53:59.580Z,7.80
2019-03-04T20:56:30.423Z,7.80
2019-03-04T20:59:03.331Z,7.80
2019-03-04T21:01:34.425Z,7.80
2019-03-04T21:04:07.269Z,7.80
2019-03-04T21:06:38.272Z,7.80
2019-03-04T21:09:22.495Z,7.80
2019-03-04T21:11:53.957Z,7.70
2019-03-04T21:14:42.530Z,7.80
2019-03-04T21:17:33.258Z,7.70
2019-03-04T21:20:12.638Z,7.70
2019-03-04T21:23:16.407Z,7.70
2019-03-04T21:26:03.303Z,7.70
2019-03-04T21:29:11.060Z,7.70
2019-03-04T21:32:02.255Z,7.70
2019-03-04T21:35:02.592Z,7.60
2019-03-04T21:37:45.101Z,7.60
2019-03-04T21:40:23.300Z,7.50
2019-03-04T21:43:02.501Z,7.50
2019-03-04T21:46:10.101Z,7.40
2019-03-04T21:48:44.876Z,7.40
2019-03-04T21:51:47.900Z,7.40
2019-03-04T21:54:18.891Z,7.40
2019-03-04T21:57:36.466Z,7.40
2019-03-04T22:00:20.573Z,7.40
2019-03-04T22:03:15.825Z,7.50
2019-03-04T22:05:50.151Z,7.40
2019-03-04T22:08:20.424Z,7.40
2019-03-04T22:10:52.462Z,7.30
2019-03-04T22:13:25.069Z,7.30
2019-03-04T22:15:57.496Z,7.30
2019-03-04T22:18:29.357Z,7.30
2019-03-04T22:21:00.950Z,7.30
2019-03-04T22:23:32.890Z,7.30
2019-03-04T22:26:03.902Z,7.30
2019-03-04T22:28:34.942Z,7.30
2019-03-04T22:31:06.969Z,7.30
2019-03-04T22:33:37.873Z,7.30
2019-03-04T22:36:09.205Z,7.30
2019-03-04T22:38:40.137Z,7.30
2019-03-04T22:41:13.619Z,7.30
2019-03-04T22:43:43.691Z,7.30
2019-03-04T22:46:14.552Z,7.30
2019-03-04T22:48:45.406Z,7.30
2019-03-04T22:51:16.301Z,7.30
2019-03-04T22:53:47.134Z,7.30
2019-03-04T22:56:18.003Z,7.30
2019-03-04T22:58:48.924Z,7.20
2019-03-04T23:01:53.913Z,7.30
2019-03-04T23:04:50.367Z,7.20
2019-03-04T23:07:33.352Z,7.30
2019-03-04T23:10:29.895Z,7.30
2019-03-04T23:13:44.816Z,7.20
2019-03-04T23:16:18.673Z,7.20
2019-03-04T23:18:49.505Z,7.20
2019-03-04T23:21:20.364Z,7.20
2019-03-04T23:23:52.214Z,7.20
2019-03-04T23:26:23.178Z,7.10
2019-03-04T23:28:54.089Z,7.10
2019-03-04T23:31:25.048Z,7.00
2019-03-04T23:33:55.980Z,7.00
2019-03-04T23:36:27.804Z,7.00
2019-03-04T23:38:59.340Z,7.00
2019-03-04T23:41:30.561Z,7.10
2019-03-04T23:44:01.495Z,7.10
2019-03-04T23:46:32.343Z,7.00
2019-03-04T23:49:03.184Z,7.00
2019-03-04T23:51:34.000Z,7.00
2019-03-04T23:54:04.854Z,7.00
2019-03-04T23:56:35.657Z,6.90
2019-03-04T23:59:06.492Z,6.90
